sensor_id;sensor_type;location;lat;lon;timestamp;P1;durP1;ratioP1;P2;durP2;ratioP2
54947;SDS011;41113;41.882;12.530;2023-05-31T00:01:43;18.13;;;7.90;;
54947;SDS011;41113;41.882;12.530;2023-05-31T00:04:08;16.90;;;8.73;;
54947;SDS011;41113;41.882;12.530;2023-05-31T00:06:34;17.58;;;8.57;;
54947;SDS011;41113;41.882;12.530;2023-05-31T00:09:00;16.75;;;8.55;;
54947;SDS011;41113;41.882;12.530;2023-05-31T00:11:26;15.30;;;7.97;;
54947;SDS011;41113;41.882;12.530;2023-05-31T00:13:52;14.48;;;8.20;;
54947;SDS011;41113;41.882;12.530;2023-05-31T00:16:18;18.33;;;8.75;;
54947;SDS011;41113;41.882;12.530;2023-05-31T00:18:44;15.25;;;8.10;;
54947;SDS011;41113;41.882;12.530;2023-05-31T00:21:10;16.42;;;8.05;;
54947;SDS011;41113;41.882;12.530;2023-05-31T00:23:36;16.08;;;8.20;;
54947;SDS011;41113;41.882;12.530;2023-05-31T00:26:01;16.10;;;8.52;;
54947;SDS011;41113;41.882;12.530;2023-05-31T00:28:27;16.15;;;7.72;;
54947;SDS011;41113;41.882;12.530;2023-05-31T00:30:53;15.18;;;7.85;;
54947;SDS011;41113;41.882;12.530;2023-05-31T00:33:18;15.48;;;8.27;;
54947;SDS011;41113;41.882;12.530;2023-05-31T00:35:44;14.43;;;7.80;;
54947;SDS011;41113;41.882;12.530;2023-05-31T00:38:09;13.55;;;7.35;;
54947;SDS011;41113;41.882;12.530;2023-05-31T00:40:34;16.02;;;8.20;;
54947;SDS011;41113;41.882;12.530;2023-05-31T00:43:00;15.93;;;8.65;;
54947;SDS011;41113;41.882;12.530;2023-05-31T00:45:25;11.75;;;7.03;;
54947;SDS011;41113;41.882;12.530;2023-05-31T00:47:51;15.30;;;7.30;;
54947;SDS011;41113;41.882;12.530;2023-05-31T00:50:17;17.10;;;8.38;;
54947;SDS011;41113;41.882;12.530;2023-05-31T00:52:43;15.95;;;8.48;;
54947;SDS011;41113;41.882;12.530;2023-05-31T00:55:11;13.90;;;8.18;;
54947;SDS011;41113;41.882;12.530;2023-05-31T00:57:36;15.45;;;8.20;;
54947;SDS011;41113;41.882;12.530;2023-05-31T01:00:03;17.58;;;8.60;;
54947;SDS011;41113;41.882;12.530;2023-05-31T01:02:31;17.92;;;8.40;;
54947;SDS011;41113;41.882;12.530;2023-05-31T01:04:57;15.00;;;8.40;;
54947;SDS011;41113;41.882;12.530;2023-05-31T01:07:23;14.82;;;8.38;;
54947;SDS011;41113;41.882;12.530;2023-05-31T01:09:49;15.30;;;8.63;;
54947;SDS011;41113;41.882;12.530;2023-05-31T01:20:21;18.55;;;8.23;;
54947;SDS011;41113;41.882;12.530;2023-05-31T01:23:00;20.95;;;8.25;;
54947;SDS011;41113;41.882;12.530;2023-05-31T01:28:13;13.48;;;7.60;;
54947;SDS011;41113;41.882;12.530;2023-05-31T01:30:39;16.58;;;8.07;;
54947;SDS011;41113;41.882;12.530;2023-05-31T01:33:08;13.77;;;7.60;;
54947;SDS011;41113;41.882;12.530;2023-05-31T01:35:35;18.15;;;7.93;;
54947;SDS011;41113;41.882;12.530;2023-05-31T01:38:00;16.17;;;8.30;;
54947;SDS011;41113;41.882;12.530;2023-05-31T01:40:26;15.73;;;8.43;;
54947;SDS011;41113;41.882;12.530;2023-05-31T01:42:52;18.05;;;8.82;;
54947;SDS011;41113;41.882;12.530;2023-05-31T01:45:17;15.88;;;8.13;;
54947;SDS011;41113;41.882;12.530;2023-05-31T01:47:43;14.73;;;8.18;;
54947;SDS011;41113;41.882;12.530;2023-05-31T01:50:11;16.83;;;8.63;;
54947;SDS011;41113;41.882;12.530;2023-05-31T01:52:38;17.80;;;8.43;;
54947;SDS011;41113;41.882;12.530;2023-05-31T01:55:04;17.83;;;9.55;;
54947;SDS011;41113;41.882;12.530;2023-05-31T01:57:30;17.10;;;8.70;;
54947;SDS011;41113;41.882;12.530;2023-05-31T01:59:59;15.93;;;7.80;;
54947;SDS011;41113;41.882;12.530;2023-05-31T02:02:26;16.48;;;8.70;;
54947;SDS011;41113;41.882;12.530;2023-05-31T02:05:08;16.50;;;8.38;;
54947;SDS011;41113;41.882;12.530;2023-05-31T02:07:45;15.73;;;7.88;;
54947;SDS011;41113;41.882;12.530;2023-05-31T02:10:13;17.98;;;8.90;;
54947;SDS011;41113;41.882;12.530;2023-05-31T02:12:39;17.65;;;8.23;;
54947;SDS011;41113;41.882;12.530;2023-05-31T02:15:05;16.70;;;8.75;;
54947;SDS011;41113;41.882;12.530;2023-05-31T02:17:36;15.45;;;7.70;;
54947;SDS011;41113;41.882;12.530;2023-05-31T02:20:05;16.15;;;8.35;;
54947;SDS011;41113;41.882;12.530;2023-05-31T02:22:34;16.58;;;8.30;;
54947;SDS011;41113;41.882;12.530;2023-05-31T02:24:59;13.70;;;8.30;;
54947;SDS011;41113;41.882;12.530;2023-05-31T02:27:24;15.02;;;7.60;;
54947;SDS011;41113;41.882;12.530;2023-05-31T02:29:50;16.10;;;7.65;;
54947;SDS011;41113;41.882;12.530;2023-05-31T02:32:15;16.02;;;7.18;;
54947;SDS011;41113;41.882;12.530;2023-05-31T02:34:41;15.93;;;8.32;;
54947;SDS011;41113;41.882;12.530;2023-05-31T02:37:07;17.60;;;7.85;;
54947;SDS011;41113;41.882;12.530;2023-05-31T02:39:33;13.60;;;7.32;;
54947;SDS011;41113;41.882;12.530;2023-05-31T02:41:58;16.50;;;8.32;;
54947;SDS011;41113;41.882;12.530;2023-05-31T02:44:23;17.02;;;8.50;;
54947;SDS011;41113;41.882;12.530;2023-05-31T02:46:49;20.50;;;8.93;;
54947;SDS011;41113;41.882;12.530;2023-05-31T02:49:14;19.00;;;9.13;;
54947;SDS011;41113;41.882;12.530;2023-05-31T02:51:40;15.73;;;9.20;;
54947;SDS011;41113;41.882;12.530;2023-05-31T02:54:05;18.08;;;10.00;;
54947;SDS011;41113;41.882;12.530;2023-05-31T02:56:31;18.50;;;10.75;;
54947;SDS011;41113;41.882;12.530;2023-05-31T02:58:57;20.60;;;10.35;;
54947;SDS011;41113;41.882;12.530;2023-05-31T03:01:23;17.23;;;9.98;;
54947;SDS011;41113;41.882;12.530;2023-05-31T03:03:48;21.98;;;10.88;;
54947;SDS011;41113;41.882;12.530;2023-05-31T03:06:13;19.85;;;10.90;;
54947;SDS011;41113;41.882;12.530;2023-05-31T03:08:41;18.30;;;10.18;;
54947;SDS011;41113;41.882;12.530;2023-05-31T03:11:07;19.80;;;9.88;;
54947;SDS011;41113;41.882;12.530;2023-05-31T03:13:32;19.17;;;8.93;;
54947;SDS011;41113;41.882;12.530;2023-05-31T03:15:57;15.60;;;8.77;;
54947;SDS011;41113;41.882;12.530;2023-05-31T03:18:23;15.93;;;9.05;;
54947;SDS011;41113;41.882;12.530;2023-05-31T03:20:48;16.45;;;9.02;;
54947;SDS011;41113;41.882;12.530;2023-05-31T03:23:13;18.15;;;9.00;;
54947;SDS011;41113;41.882;12.530;2023-05-31T03:25:39;18.83;;;9.20;;
54947;SDS011;41113;41.882;12.530;2023-05-31T03:28:04;17.67;;;9.57;;
54947;SDS011;41113;41.882;12.530;2023-05-31T03:30:29;17.02;;;9.60;;
54947;SDS011;41113;41.882;12.530;2023-05-31T03:32:55;16.25;;;9.23;;
54947;SDS011;41113;41.882;12.530;2023-05-31T03:35:20;18.02;;;9.48;;
54947;SDS011;41113;41.882;12.530;2023-05-31T03:37:46;17.17;;;8.75;;
54947;SDS011;41113;41.882;12.530;2023-05-31T03:40:11;17.23;;;8.55;;
54947;SDS011;41113;41.882;12.530;2023-05-31T03:42:37;19.52;;;8.60;;
54947;SDS011;41113;41.882;12.530;2023-05-31T03:45:02;17.15;;;8.55;;
54947;SDS011;41113;41.882;12.530;2023-05-31T03:47:28;14.65;;;8.25;;
54947;SDS011;41113;41.882;12.530;2023-05-31T03:49:54;16.10;;;8.10;;
54947;SDS011;41113;41.882;12.530;2023-05-31T03:52:19;18.52;;;8.90;;
54947;SDS011;41113;41.882;12.530;2023-05-31T03:54:45;17.52;;;8.25;;
54947;SDS011;41113;41.882;12.530;2023-05-31T03:57:11;17.08;;;9.05;;
54947;SDS011;41113;41.882;12.530;2023-05-31T03:59:37;16.13;;;9.00;;
54947;SDS011;41113;41.882;12.530;2023-05-31T04:02:02;16.38;;;8.73;;
54947;SDS011;41113;41.882;12.530;2023-05-31T04:04:28;16.00;;;8.82;;
54947;SDS011;41113;41.882;12.530;2023-05-31T04:06:53;17.25;;;8.32;;
54947;SDS011;41113;41.882;12.530;2023-05-31T04:09:19;15.77;;;8.05;;
54947;SDS011;41113;41.882;12.530;2023-05-31T04:11:45;15.45;;;8.07;;
54947;SDS011;41113;41.882;12.530;2023-05-31T04:14:10;18.02;;;7.75;;
54947;SDS011;41113;41.882;12.530;2023-05-31T04:16:37;12.57;;;6.90;;
54947;SDS011;41113;41.882;12.530;2023-05-31T04:19:03;15.43;;;7.07;;
54947;SDS011;41113;41.882;12.530;2023-05-31T04:21:28;12.95;;;6.90;;
54947;SDS011;41113;41.882;12.530;2023-05-31T04:23:53;16.70;;;7.47;;
54947;SDS011;41113;41.882;12.530;2023-05-31T04:26:19;12.75;;;6.63;;
54947;SDS011;41113;41.882;12.530;2023-05-31T04:28:46;14.30;;;6.80;;
54947;SDS011;41113;41.882;12.530;2023-05-31T04:31:16;16.10;;;7.40;;
54947;SDS011;41113;41.882;12.530;2023-05-31T04:33:42;15.65;;;8.05;;
54947;SDS011;41113;41.882;12.530;2023-05-31T04:36:09;15.43;;;7.40;;
54947;SDS011;41113;41.882;12.530;2023-05-31T04:38:34;24.30;;;7.40;;
54947;SDS011;41113;41.882;12.530;2023-05-31T04:41:00;15.60;;;7.40;;
54947;SDS011;41113;41.882;12.530;2023-05-31T04:43:28;15.82;;;7.15;;
54947;SDS011;41113;41.882;12.530;2023-05-31T04:45:53;13.02;;;6.07;;
54947;SDS011;41113;41.882;12.530;2023-05-31T04:48:19;14.35;;;6.95;;
54947;SDS011;41113;41.882;12.530;2023-05-31T04:50:46;14.50;;;6.25;;
54947;SDS011;41113;41.882;12.530;2023-05-31T04:53:13;13.60;;;6.20;;
54947;SDS011;41113;41.882;12.530;2023-05-31T04:55:39;14.57;;;6.57;;
54947;SDS011;41113;41.882;12.530;2023-05-31T04:58:04;11.50;;;6.05;;
54947;SDS011;41113;41.882;12.530;2023-05-31T05:00:30;11.48;;;5.57;;
54947;SDS011;41113;41.882;12.530;2023-05-31T05:02:55;14.98;;;6.75;;
54947;SDS011;41113;41.882;12.530;2023-05-31T05:05:21;13.63;;;6.65;;
54947;SDS011;41113;41.882;12.530;2023-05-31T05:07:48;14.32;;;6.65;;
54947;SDS011;41113;41.882;12.530;2023-05-31T05:10:14;15.65;;;6.95;;
54947;SDS011;41113;41.882;12.530;2023-05-31T05:12:40;16.38;;;6.30;;
54947;SDS011;41113;41.882;12.530;2023-05-31T05:15:06;13.77;;;6.53;;
54947;SDS011;41113;41.882;12.530;2023-05-31T05:17:31;12.27;;;6.22;;
54947;SDS011;41113;41.882;12.530;2023-05-31T05:19:57;13.57;;;6.80;;
54947;SDS011;41113;41.882;12.530;2023-05-31T05:22:22;12.80;;;5.95;;
54947;SDS011;41113;41.882;12.530;2023-05-31T05:24:48;12.65;;;6.22;;
54947;SDS011;41113;41.882;12.530;2023-05-31T05:27:13;12.65;;;5.75;;
54947;SDS011;41113;41.882;12.530;2023-05-31T05:29:38;11.02;;;5.35;;
54947;SDS011;41113;41.882;12.530;2023-05-31T05:32:04;12.85;;;5.93;;
54947;SDS011;41113;41.882;12.530;2023-05-31T05:34:31;12.45;;;6.00;;
54947;SDS011;41113;41.882;12.530;2023-05-31T05:36:56;12.38;;;5.32;;
54947;SDS011;41113;41.882;12.530;2023-05-31T05:39:22;12.73;;;5.15;;
54947;SDS011;41113;41.882;12.530;2023-05-31T05:41:47;12.25;;;5.47;;
54947;SDS011;41113;41.882;12.530;2023-05-31T05:44:12;11.73;;;5.18;;
54947;SDS011;41113;41.882;12.530;2023-05-31T05:46:38;11.65;;;4.72;;
54947;SDS011;41113;41.882;12.530;2023-05-31T05:49:03;12.30;;;5.40;;
54947;SDS011;41113;41.882;12.530;2023-05-31T05:51:28;12.30;;;5.50;;
54947;SDS011;41113;41.882;12.530;2023-05-31T05:53:54;11.45;;;4.95;;
54947;SDS011;41113;41.882;12.530;2023-05-31T05:56:20;11.63;;;5.63;;
54947;SDS011;41113;41.882;12.530;2023-05-31T05:58:46;10.90;;;5.10;;
54947;SDS011;41113;41.882;12.530;2023-05-31T06:01:13;10.65;;;5.22;;
54947;SDS011;41113;41.882;12.530;2023-05-31T06:03:48;13.10;;;5.38;;
54947;SDS011;41113;41.882;12.530;2023-05-31T06:06:14;9.98;;;4.50;;
54947;SDS011;41113;41.882;12.530;2023-05-31T06:08:41;12.65;;;5.25;;
54947;SDS011;41113;41.882;12.530;2023-05-31T06:11:07;12.18;;;4.68;;
54947;SDS011;41113;41.882;12.530;2023-05-31T06:13:34;11.05;;;4.95;;
54947;SDS011;41113;41.882;12.530;2023-05-31T06:16:01;12.68;;;5.10;;
54947;SDS011;41113;41.882;12.530;2023-05-31T06:18:28;12.25;;;6.70;;
54947;SDS011;41113;41.882;12.530;2023-05-31T06:20:53;14.52;;;5.80;;
54947;SDS011;41113;41.882;12.530;2023-05-31T06:23:20;15.88;;;5.65;;
54947;SDS011;41113;41.882;12.530;2023-05-31T06:25:45;12.30;;;5.15;;
54947;SDS011;41113;41.882;12.530;2023-05-31T06:28:11;10.88;;;4.57;;
54947;SDS011;41113;41.882;12.530;2023-05-31T06:30:36;12.40;;;5.30;;
54947;SDS011;41113;41.882;12.530;2023-05-31T06:33:01;11.82;;;5.28;;
54947;SDS011;41113;41.882;12.530;2023-05-31T06:35:27;10.48;;;4.70;;
54947;SDS011;41113;41.882;12.530;2023-05-31T06:37:53;10.25;;;5.10;;
54947;SDS011;41113;41.882;12.530;2023-05-31T06:40:19;14.57;;;5.05;;
54947;SDS011;41113;41.882;12.530;2023-05-31T06:42:44;11.38;;;4.90;;
54947;SDS011;41113;41.882;12.530;2023-05-31T06:45:10;10.55;;;4.82;;
54947;SDS011;41113;41.882;12.530;2023-05-31T06:47:35;12.15;;;5.53;;
54947;SDS011;41113;41.882;12.530;2023-05-31T06:50:00;14.13;;;5.70;;
54947;SDS011;41113;41.882;12.530;2023-05-31T06:52:27;13.90;;;5.75;;
54947;SDS011;41113;41.882;12.530;2023-05-31T06:54:52;13.88;;;5.57;;
54947;SDS011;41113;41.882;12.530;2023-05-31T06:57:18;14.38;;;5.85;;
54947;SDS011;41113;41.882;12.530;2023-05-31T06:59:43;11.35;;;5.05;;
54947;SDS011;41113;41.882;12.530;2023-05-31T07:02:10;10.98;;;5.70;;
54947;SDS011;41113;41.882;12.530;2023-05-31T07:04:36;14.38;;;5.80;;
54947;SDS011;41113;41.882;12.530;2023-05-31T07:07:01;12.38;;;5.20;;
54947;SDS011;41113;41.882;12.530;2023-05-31T07:09:28;11.57;;;5.85;;
54947;SDS011;41113;41.882;12.530;2023-05-31T07:11:54;10.25;;;5.13;;
54947;SDS011;41113;41.882;12.530;2023-05-31T07:14:19;12.18;;;4.72;;
54947;SDS011;41113;41.882;12.530;2023-05-31T07:16:44;16.05;;;5.95;;
54947;SDS011;41113;41.882;12.530;2023-05-31T07:19:10;13.25;;;6.15;;
54947;SDS011;41113;41.882;12.530;2023-05-31T07:21:35;13.05;;;6.15;;
54947;SDS011;41113;41.882;12.530;2023-05-31T07:24:01;11.60;;;5.20;;
54947;SDS011;41113;41.882;12.530;2023-05-31T07:26:26;10.93;;;4.85;;
54947;SDS011;41113;41.882;12.530;2023-05-31T07:28:52;12.43;;;5.93;;
54947;SDS011;41113;41.882;12.530;2023-05-31T07:31:20;13.68;;;5.55;;
54947;SDS011;41113;41.882;12.530;2023-05-31T07:33:46;13.60;;;5.13;;
54947;SDS011;41113;41.882;12.530;2023-05-31T07:36:11;11.57;;;6.15;;
54947;SDS011;41113;41.882;12.530;2023-05-31T07:38:36;15.10;;;5.43;;
54947;SDS011;41113;41.882;12.530;2023-05-31T07:41:02;10.77;;;5.53;;
54947;SDS011;41113;41.882;12.530;2023-05-31T07:43:28;11.73;;;5.65;;
54947;SDS011;41113;41.882;12.530;2023-05-31T07:45:54;11.45;;;5.35;;
54947;SDS011;41113;41.882;12.530;2023-05-31T07:48:20;11.40;;;5.75;;
54947;SDS011;41113;41.882;12.530;2023-05-31T07:50:46;12.02;;;5.70;;
54947;SDS011;41113;41.882;12.530;2023-05-31T07:53:11;13.00;;;5.68;;
54947;SDS011;41113;41.882;12.530;2023-05-31T07:55:37;12.10;;;5.15;;
54947;SDS011;41113;41.882;12.530;2023-05-31T07:58:02;12.00;;;4.90;;
54947;SDS011;41113;41.882;12.530;2023-05-31T08:00:28;12.27;;;5.40;;
54947;SDS011;41113;41.882;12.530;2023-05-31T08:02:54;34.30;;;8.75;;
54947;SDS011;41113;41.882;12.530;2023-05-31T08:05:19;18.38;;;5.68;;
54947;SDS011;41113;41.882;12.530;2023-05-31T08:07:45;12.27;;;5.85;;
54947;SDS011;41113;41.882;12.530;2023-05-31T08:10:12;11.65;;;5.68;;
54947;SDS011;41113;41.882;12.530;2023-05-31T08:12:39;12.75;;;5.47;;
54947;SDS011;41113;41.882;12.530;2023-05-31T08:15:05;11.70;;;5.35;;
54947;SDS011;41113;41.882;12.530;2023-05-31T08:17:32;12.35;;;5.32;;
54947;SDS011;41113;41.882;12.530;2023-05-31T08:19:57;10.38;;;5.60;;
54947;SDS011;41113;41.882;12.530;2023-05-31T08:22:22;11.07;;;5.03;;
54947;SDS011;41113;41.882;12.530;2023-05-31T08:24:48;10.55;;;5.10;;
54947;SDS011;41113;41.882;12.530;2023-05-31T08:27:14;10.63;;;5.13;;
54947;SDS011;41113;41.882;12.530;2023-05-31T08:29:40;11.60;;;5.32;;
54947;SDS011;41113;41.882;12.530;2023-05-31T08:32:05;11.35;;;5.20;;
54947;SDS011;41113;41.882;12.530;2023-05-31T08:34:31;13.63;;;5.30;;
54947;SDS011;41113;41.882;12.530;2023-05-31T08:36:56;13.63;;;5.70;;
54947;SDS011;41113;41.882;12.530;2023-05-31T08:39:22;10.27;;;5.82;;
54947;SDS011;41113;41.882;12.530;2023-05-31T08:41:58;10.60;;;4.63;;
54947;SDS011;41113;41.882;12.530;2023-05-31T08:44:27;12.70;;;5.35;;
54947;SDS011;41113;41.882;12.530;2023-05-31T08:46:56;11.65;;;4.88;;
54947;SDS011;41113;41.882;12.530;2023-05-31T08:49:23;10.82;;;5.00;;
54947;SDS011;41113;41.882;12.530;2023-05-31T08:51:50;16.02;;;4.90;;
54947;SDS011;41113;41.882;12.530;2023-05-31T08:54:16;12.60;;;5.43;;
54947;SDS011;41113;41.882;12.530;2023-05-31T08:56:42;10.38;;;5.25;;
54947;SDS011;41113;41.882;12.530;2023-05-31T08:59:10;11.68;;;4.95;;
54947;SDS011;41113;41.882;12.530;2023-05-31T09:01:37;10.30;;;5.05;;
54947;SDS011;41113;41.882;12.530;2023-05-31T09:04:06;10.73;;;5.47;;
54947;SDS011;41113;41.882;12.530;2023-05-31T09:06:33;12.43;;;5.40;;
54947;SDS011;41113;41.882;12.530;2023-05-31T09:08:59;11.02;;;4.45;;
54947;SDS011;41113;41.882;12.530;2023-05-31T09:11:26;11.52;;;4.55;;
54947;SDS011;41113;41.882;12.530;2023-05-31T09:13:52;9.85;;;4.85;;
54947;SDS011;41113;41.882;12.530;2023-05-31T09:16:19;9.88;;;4.78;;
54947;SDS011;41113;41.882;12.530;2023-05-31T09:18:46;11.97;;;5.73;;
54947;SDS011;41113;41.882;12.530;2023-05-31T09:21:12;12.10;;;5.22;;
54947;SDS011;41113;41.882;12.530;2023-05-31T09:23:51;11.40;;;5.72;;
54947;SDS011;41113;41.882;12.530;2023-05-31T09:26:18;10.45;;;5.05;;
54947;SDS011;41113;41.882;12.530;2023-05-31T09:28:47;11.63;;;5.05;;
54947;SDS011;41113;41.882;12.530;2023-05-31T09:31:14;11.55;;;5.13;;
54947;SDS011;41113;41.882;12.530;2023-05-31T09:33:41;11.73;;;4.82;;
54947;SDS011;41113;41.882;12.530;2023-05-31T09:36:08;11.63;;;5.47;;
54947;SDS011;41113;41.882;12.530;2023-05-31T09:38:34;11.35;;;4.28;;
54947;SDS011;41113;41.882;12.530;2023-05-31T09:41:14;12.18;;;5.00;;
54947;SDS011;41113;41.882;12.530;2023-05-31T09:43:41;12.35;;;5.32;;
54947;SDS011;41113;41.882;12.530;2023-05-31T09:46:11;11.75;;;4.95;;
54947;SDS011;41113;41.882;12.530;2023-05-31T09:49:05;11.75;;;5.05;;
54947;SDS011;41113;41.882;12.530;2023-05-31T09:51:31;10.30;;;4.30;;
54947;SDS011;41113;41.882;12.530;2023-05-31T09:53:58;11.88;;;4.78;;
54947;SDS011;41113;41.882;12.530;2023-05-31T09:56:27;9.07;;;4.35;;
54947;SDS011;41113;41.882;12.530;2023-05-31T09:58:55;11.20;;;4.78;;
54947;SDS011;41113;41.882;12.530;2023-05-31T10:01:22;13.75;;;5.05;;
54947;SDS011;41113;41.882;12.530;2023-05-31T10:03:50;10.25;;;4.95;;
54947;SDS011;41113;41.882;12.530;2023-05-31T10:06:16;9.97;;;4.50;;
54947;SDS011;41113;41.882;12.530;2023-05-31T10:08:43;11.80;;;5.10;;
54947;SDS011;41113;41.882;12.530;2023-05-31T10:11:11;12.30;;;4.70;;
54947;SDS011;41113;41.882;12.530;2023-05-31T10:13:42;10.55;;;4.63;;
54947;SDS011;41113;41.882;12.530;2023-05-31T10:16:09;10.52;;;4.45;;
54947;SDS011;41113;41.882;12.530;2023-05-31T10:18:40;10.93;;;5.07;;
54947;SDS011;41113;41.882;12.530;2023-05-31T10:23:49;12.57;;;5.45;;
54947;SDS011;41113;41.882;12.530;2023-05-31T10:26:35;10.50;;;4.57;;
54947;SDS011;41113;41.882;12.530;2023-05-31T10:29:19;11.27;;;4.80;;
54947;SDS011;41113;41.882;12.530;2023-05-31T10:31:49;11.13;;;5.18;;
54947;SDS011;41113;41.882;12.530;2023-05-31T10:34:19;10.45;;;4.80;;
54947;SDS011;41113;41.882;12.530;2023-05-31T10:36:45;12.40;;;4.78;;
54947;SDS011;41113;41.882;12.530;2023-05-31T10:39:24;9.18;;;4.35;;
54947;SDS011;41113;41.882;12.530;2023-05-31T10:41:53;11.10;;;4.47;;
54947;SDS011;41113;41.882;12.530;2023-05-31T10:44:27;10.07;;;4.68;;
54947;SDS011;41113;41.882;12.530;2023-05-31T10:47:00;9.80;;;4.80;;
54947;SDS011;41113;41.882;12.530;2023-05-31T10:49:31;11.10;;;4.65;;
54947;SDS011;41113;41.882;12.530;2023-05-31T10:52:04;10.73;;;5.22;;
54947;SDS011;41113;41.882;12.530;2023-05-31T10:54:31;10.52;;;5.47;;
54947;SDS011;41113;41.882;12.530;2023-05-31T10:56:57;11.95;;;4.78;;
54947;SDS011;41113;41.882;12.530;2023-05-31T10:59:25;13.45;;;5.28;;
54947;SDS011;41113;41.882;12.530;2023-05-31T11:01:51;10.63;;;4.80;;
54947;SDS011;41113;41.882;12.530;2023-05-31T11:04:23;9.57;;;4.75;;
54947;SDS011;41113;41.882;12.530;2023-05-31T11:06:53;12.75;;;4.80;;
54947;SDS011;41113;41.882;12.530;2023-05-31T11:09:37;10.38;;;4.97;;
54947;SDS011;41113;41.882;12.530;2023-05-31T11:12:03;12.25;;;5.30;;
54947;SDS011;41113;41.882;12.530;2023-05-31T11:14:30;11.23;;;4.63;;
54947;SDS011;41113;41.882;12.530;2023-05-31T11:19:29;12.00;;;4.55;;
54947;SDS011;41113;41.882;12.530;2023-05-31T11:21:56;9.68;;;4.28;;
54947;SDS011;41113;41.882;12.530;2023-05-31T11:26:51;10.15;;;4.45;;
54947;SDS011;41113;41.882;12.530;2023-05-31T11:29:17;11.65;;;5.60;;
54947;SDS011;41113;41.882;12.530;2023-05-31T11:34:27;11.80;;;5.22;;
54947;SDS011;41113;41.882;12.530;2023-05-31T11:36:58;12.27;;;4.47;;
54947;SDS011;41113;41.882;12.530;2023-05-31T11:39:25;12.48;;;5.10;;
54947;SDS011;41113;41.882;12.530;2023-05-31T11:41:52;10.57;;;5.05;;
54947;SDS011;41113;41.882;12.530;2023-05-31T11:44:28;13.05;;;5.22;;
54947;SDS011;41113;41.882;12.530;2023-05-31T11:47:39;11.50;;;4.38;;
54947;SDS011;41113;41.882;12.530;2023-05-31T11:49:44;11.85;;;4.70;;
54947;SDS011;41113;41.882;12.530;2023-05-31T11:52:14;11.32;;;4.88;;
54947;SDS011;41113;41.882;12.530;2023-05-31T11:54:41;10.50;;;4.65;;
54947;SDS011;41113;41.882;12.530;2023-05-31T11:57:08;11.23;;;4.30;;
54947;SDS011;41113;41.882;12.530;2023-05-31T11:59:34;11.90;;;4.70;;
54947;SDS011;41113;41.882;12.530;2023-05-31T12:02:01;10.65;;;3.80;;
54947;SDS011;41113;41.882;12.530;2023-05-31T12:04:32;9.48;;;4.30;;
54947;SDS011;41113;41.882;12.530;2023-05-31T12:07:11;9.85;;;4.30;;
54947;SDS011;41113;41.882;12.530;2023-05-31T12:09:37;11.38;;;5.15;;
54947;SDS011;41113;41.882;12.530;2023-05-31T12:12:04;10.55;;;4.97;;
54947;SDS011;41113;41.882;12.530;2023-05-31T12:14:30;13.45;;;4.78;;
54947;SDS011;41113;41.882;12.530;2023-05-31T12:16:59;9.73;;;4.85;;
54947;SDS011;41113;41.882;12.530;2023-05-31T12:19:27;12.00;;;5.10;;
54947;SDS011;41113;41.882;12.530;2023-05-31T12:21:52;10.18;;;4.85;;
54947;SDS011;41113;41.882;12.530;2023-05-31T12:24:18;11.32;;;4.63;;
54947;SDS011;41113;41.882;12.530;2023-05-31T12:26:44;9.95;;;4.97;;
54947;SDS011;41113;41.882;12.530;2023-05-31T12:29:11;12.93;;;4.68;;
54947;SDS011;41113;41.882;12.530;2023-05-31T12:31:37;13.00;;;4.85;;
54947;SDS011;41113;41.882;12.530;2023-05-31T12:36:57;11.32;;;4.60;;
54947;SDS011;41113;41.882;12.530;2023-05-31T12:39:23;11.05;;;4.55;;
54947;SDS011;41113;41.882;12.530;2023-05-31T12:41:52;10.65;;;3.97;;
54947;SDS011;41113;41.882;12.530;2023-05-31T12:44:18;10.70;;;4.38;;
54947;SDS011;41113;41.882;12.530;2023-05-31T12:46:47;9.88;;;4.15;;
54947;SDS011;41113;41.882;12.530;2023-05-31T12:49:21;10.00;;;4.38;;
54947;SDS011;41113;41.882;12.530;2023-05-31T12:51:56;9.02;;;4.00;;
54947;SDS011;41113;41.882;12.530;2023-05-31T12:54:29;8.98;;;3.85;;
54947;SDS011;41113;41.882;12.530;2023-05-31T12:56:56;8.18;;;3.65;;
54947;SDS011;41113;41.882;12.530;2023-05-31T12:59:28;9.45;;;4.43;;
54947;SDS011;41113;41.882;12.530;2023-05-31T13:01:54;11.98;;;4.10;;
54947;SDS011;41113;41.882;12.530;2023-05-31T13:04:22;9.07;;;4.40;;
54947;SDS011;41113;41.882;12.530;2023-05-31T13:06:48;10.88;;;3.85;;
54947;SDS011;41113;41.882;12.530;2023-05-31T13:09:14;8.77;;;3.97;;
54947;SDS011;41113;41.882;12.530;2023-05-31T13:11:41;12.10;;;5.00;;
54947;SDS011;41113;41.882;12.530;2023-05-31T13:14:07;11.52;;;4.10;;
54947;SDS011;41113;41.882;12.530;2023-05-31T13:16:36;9.43;;;4.35;;
54947;SDS011;41113;41.882;12.530;2023-05-31T13:19:03;9.83;;;4.30;;
54947;SDS011;41113;41.882;12.530;2023-05-31T13:21:30;9.57;;;4.10;;
54947;SDS011;41113;41.882;12.530;2023-05-31T13:24:01;10.27;;;3.75;;
54947;SDS011;41113;41.882;12.530;2023-05-31T13:26:27;9.93;;;4.22;;
54947;SDS011;41113;41.882;12.530;2023-05-31T13:28:53;9.32;;;4.28;;
54947;SDS011;41113;41.882;12.530;2023-05-31T13:31:19;9.65;;;3.85;;
54947;SDS011;41113;41.882;12.530;2023-05-31T13:33:46;9.07;;;4.20;;
54947;SDS011;41113;41.882;12.530;2023-05-31T13:36:13;10.32;;;4.40;;
54947;SDS011;41113;41.882;12.530;2023-05-31T13:38:39;9.07;;;4.40;;
54947;SDS011;41113;41.882;12.530;2023-05-31T13:41:05;10.85;;;4.65;;
54947;SDS011;41113;41.882;12.530;2023-05-31T13:43:30;11.07;;;3.85;;
54947;SDS011;41113;41.882;12.530;2023-05-31T13:45:56;8.95;;;3.30;;
54947;SDS011;41113;41.882;12.530;2023-05-31T13:48:23;10.73;;;4.25;;
54947;SDS011;41113;41.882;12.530;2023-05-31T13:50:48;11.05;;;4.05;;
54947;SDS011;41113;41.882;12.530;2023-05-31T13:53:13;8.75;;;3.92;;
54947;SDS011;41113;41.882;12.530;2023-05-31T13:55:39;10.75;;;3.97;;
54947;SDS011;41113;41.882;12.530;2023-05-31T13:58:04;8.25;;;3.63;;
54947;SDS011;41113;41.882;12.530;2023-05-31T14:00:30;8.20;;;3.45;;
54947;SDS011;41113;41.882;12.530;2023-05-31T14:02:56;7.97;;;3.65;;
54947;SDS011;41113;41.882;12.530;2023-05-31T14:05:22;9.38;;;4.32;;
54947;SDS011;41113;41.882;12.530;2023-05-31T14:07:47;8.35;;;3.83;;
54947;SDS011;41113;41.882;12.530;2023-05-31T14:10:14;8.50;;;4.18;;
54947;SDS011;41113;41.882;12.530;2023-05-31T14:12:40;9.40;;;4.15;;
54947;SDS011;41113;41.882;12.530;2023-05-31T14:15:06;10.18;;;4.43;;
54947;SDS011;41113;41.882;12.530;2023-05-31T14:17:33;10.02;;;4.75;;
54947;SDS011;41113;41.882;12.530;2023-05-31T14:19:58;11.55;;;4.72;;
54947;SDS011;41113;41.882;12.530;2023-05-31T14:22:23;10.43;;;4.10;;
54947;SDS011;41113;41.882;12.530;2023-05-31T14:24:49;10.75;;;4.60;;
54947;SDS011;41113;41.882;12.530;2023-05-31T14:27:15;10.90;;;4.45;;
54947;SDS011;41113;41.882;12.530;2023-05-31T14:29:43;12.15;;;4.40;;
54947;SDS011;41113;41.882;12.530;2023-05-31T14:32:08;12.50;;;4.78;;
54947;SDS011;41113;41.882;12.530;2023-05-31T14:34:37;13.15;;;4.88;;
54947;SDS011;41113;41.882;12.530;2023-05-31T14:37:03;9.75;;;5.20;;
54947;SDS011;41113;41.882;12.530;2023-05-31T14:39:28;10.63;;;4.93;;
54947;SDS011;41113;41.882;12.530;2023-05-31T14:41:54;11.55;;;4.80;;
54947;SDS011;41113;41.882;12.530;2023-05-31T14:44:19;13.98;;;4.88;;
54947;SDS011;41113;41.882;12.530;2023-05-31T14:46:44;13.00;;;5.43;;